Ride Results

SC No Frills TQ18 Fundraiser (15-09-2017)
Ride distance: 84.0 km

Outcomes - SC No Frills TQ18 Fundraiser (15-09-2017)
Division No. of Entries Retired / DNE Completed Withdrawn Ineligible V/O Percentage Completed
HW 4 - 3 - - 1 75.00%
MW 19 - 17 - - 2 89.47%
LW 16 - 14 1 - 1 87.50%
JN 8 - 6 - - 2 75.00%
Totals 47 - 40 1 - 6 85.11%
Results - SC No Frills TQ18 Fundraiser (15-09-2017)
No. Rider Horse Place Time Leg Speeds Total
Km/Hr
H/R bpm
Heavyweight
194 Robby Walsh Free Spirit Czar 1 (BC) 6:06:00 16.6, 11.7 13.77 37, 46, 52 (Avg:49)
166 Craig Wilson Rebel Impact 2 6:22:00 14.6, 11.9 13.19 34, 43, 58 (Avg:50)
262 Andrew Miles Beau 3 8:00:00 11.8, 9.4 10.50 43, 42, 47 (Avg:44)
324 David McCoy Follydown Snoopy Lame L1 0:00:00 12.5 - 33, 47 (Avg:47)
Middleweight
114 Tara Nicklason Wongawol Legend 1 (BC) 4:49:00 19.2, 15.9 17.44 34, 47, 49 (Avg:48)
57 Tania Jago Rivergum Ripper 2 5:37:00 16.5, 13.6 14.96 35, 45, 53 (Avg:49)
88 Anthony Bloom Booma 3 6:00:00 16.2, 12.2 14.00 37, 38, 53 (Avg:45)
179 Debbie Grull DVS Sunsilk 4 6:02:00 16.5, 11.9 13.92 35, 48, 51 (Avg:49)
276 Naomi Maxwell Highland View Pearl 4 6:02:00 16.5, 11.9 13.92 43, 52, 55 (Avg:53)
142 Shayne Williams Shayelle Chocolate 6 6:09:00 13.6, 13.6 13.66 36, 41, 44 (Avg:42)
101 Wendy Rand Acaciavej Silk'n Velvet 7 6:10:00 13.6, 13.6 13.62 38, 43, 45 (Avg:44)
76 Karin Morris Follydown Mystify 8 6:25:00 13.4, 12.7 13.09 35, 44, 46 (Avg:45)
122 Adrianna Pott Cruze GT 9 6:43:00 13.6, 11.5 12.51 44, 50, 57 (Avg:53)
69 Tracey Wyllie AT Dial Range Jilly 10 6:44:00 12.4, 12.4 12.48 37, 46, 49 (Avg:47)
300 Raelene Smith Walford Jaydjay 11 6:49:00 13.6, 11.2 12.32 40, 52, 57 (Avg:54)
339 Lara Verdouw Awarran Park Shining Aura 12 7:00:00 12.5, 11.5 12.00 34, 46, 58 (Avg:52)
180 Nicole Ford El- Zarka 13 7:02:00 12.5, 11.4 11.94 38, 44, 60 (Avg:52)
329 Tania Kennedy Marshdale Cheeky Lad 14 7:24:00 12.1, 10.6 11.35 29, 36, 48 (Avg:42)
274 Jennifer Terry Roc Solid 14 7:24:00 12.1, 10.6 11.35 40, 42, 45 (Avg:43)
309 Nicole Sedgman Shadow 16 7:27:00 12.3, 10.3 11.28 37, 45, 47 (Avg:46)
4 Helen Bowkett Kintamani Silver Daquiri 17 8:00:00 11.7, 9.4 10.50 33, 38, 53 (Avg:45)
80 Noel Lockhart Archerville Cimarron Lame L2 0:00:00 13.6, 13.6 - 41, 47, 51 (Avg:49)
136 Kaye Mitchell Beer Street Lizzy B Lame L1 0:00:00 17.4 - 37, 47 (Avg:47)
Lightweight
42 Dianne Walsh Razorback Silver Wings 1 (BC) 5:02:00 17.4, 15.9 16.69 33, 40, 49 (Avg:44)
O Shannon Hill Ralvon Splendour 2 6:00:00 13.6, 14.4 14.00 30, 33, 46 (Avg:39)
70 Chels Royer AT Dial Range Schmook 3 6:06:00 14.4, 13.1 13.77 39, 47, 51 (Avg:49)
30 Amelia Napier Tanbark Banjo 4 6:25:00 13.6, 12.6 13.09 33, 44, 50 (Avg:47)
150 Emily Shadbolt Pine Gully Jetfire 4 6:25:00 13.6, 12.6 13.09 44, 46, 47 (Avg:46)
225 Jane Walsh Sunhaven Blessing 4 6:25:00 13.4, 12.7 13.09 37, 44, 47 (Avg:45)
253 Kelly Woodhouse Rivergum High Serenity 7 6:29:00 13.6, 12.3 12.96 36, 45, 48 (Avg:46)
187 Kelli Parker Undurra Sahara 8 6:43:00 12.4, 12.5 12.51 36, 37, 40 (Avg:38)
304 Bethany McGregor Anderton Park El Ashar 9 6:55:00 12.7, 11.6 12.14 31, 43, 44 (Avg:43)
107 Shane Neilley Woodsong Zadonk 9 6:55:00 12.7, 11.6 12.14 40, 47, 49 (Avg:48)
328 Megan Finn Wendy Lalani 11 6:57:00 12.8, 11.4 12.09 37, 51, 52 (Avg:51)
248 Kristin Kay Malricia Madeleina 11 6:57:00 12.7, 11.4 12.09 33, 49, 45 (Avg:47)
218 Kristy Keep Highland View Indian 13 7:00:00 12.7, 11.3 12.00 38, 46, 53 (Avg:49)
74 Felicity Perry Wattlewood Park Kalee 13 7:00:00 12.7, 11.3 12.00 36, 46, 55 (Avg:50)
12 Anita Hutchins AT Dial Range Sam Lame L2 0:00:00 14.4, 13.1 - 32, 43, 52 (Avg:47)
90 Angela Hawks Karabah Tully Widthdrawn P/R 0:00:00 - - 35
Junior
113 Kirstie Lockhart Razara Momentum 1 4:33:00 19.3, 17.6 18.46 39, 43, 48 (Avg:45)
251 Ellsie Mead Kalody Park Chase 2 (BC) 4:57:00 17.0, 16.9 16.97 48, 45, 48 (Avg:46)
260 Laura Febey Rocky 3 5:28:00 17.4, 13.6 15.37 36, 40, 42 (Avg:41)
242 Allie Bloom Kerribea 4 6:00:00 16.2, 12.2 14.00 35, 44, 49 (Avg:46)
292 Holli Anthony OToole AT Dial Range Solo 5 6:44:00 12.4, 12.4 12.48 35, 35, 42 (Avg:38)
127 Jaz Hutchins AT Dial Range Bill 5 6:44:00 12.4, 12.4 12.48 36, 40, 45 (Avg:42)
308 Ella Carter Shemali Silver Sherif Lame L2 0:00:00 16.5, 14.3 - 37, 48, 51 (Avg:49)
170 Letitia Terry Arjuna Ridge Rafan Lame L2 0:00:00 12.1, 10.6 - 34, 45, 51 (Avg:48)